EGEO

Oban Airport

North Connel, United Kingdom
METAR EGEO 091550Z 32011KT 9999 FEW028 07/03 Q1014
Observed Flight Rules
Dec-9 @ 15:50 UTC (7 hours ago) Visual Flight Rules
Wind Visibility Clouds
320° at 11 knots 10,000+ meters
  • Few at 2,800' AGL
Temperatures Readings
Current 7°C / 45°F
Dewpoint 3°C / 37°F
Humidity 76%
Altimeter 29.94" Hg
Pressure 1014 hPa
Elevation 6
METAR EGEO 091550Z 32011KT 9999 FEW028 07/03 Q1014
Observed Flight Rules
Dec-9 @ 15:50 UTC
(7 hours ago)
VFR
Wind Visibility
320° at 11 knots 10,000+ meters
Clouds
  • Few at 2,800' AGL
Temperature Dewpoint
7°C / 45°F 3°C / 37°F
Humidity Altimeter Pressure
76% 29.94" Hg 1014 hPa